createdAt,value
2019-05-17T00:01:41.869Z,101029.44
2019-05-17T00:04:11.468Z,101031.33
2019-05-17T00:06:41.111Z,101034.64
2019-05-17T00:09:11.124Z,101028.90
2019-05-17T00:11:40.843Z,101016.45
2019-05-17T00:14:10.734Z,101019.64
2019-05-17T00:16:40.774Z,101026.49
2019-05-17T00:19:10.730Z,101020.06
2019-05-17T00:21:40.506Z,101019.51
2019-05-17T00:24:10.208Z,101013.84
2019-05-17T00:26:40.057Z,101025.09
2019-05-17T00:29:09.919Z,101020.75
2019-05-17T00:31:39.596Z,101019.39
2019-05-17T00:34:09.314Z,101013.16
2019-05-17T00:36:38.902Z,101017.67
2019-05-17T00:39:08.847Z,101011.90
2019-05-17T00:41:38.416Z,101015.27
2019-05-17T00:44:08.013Z,101006.16
2019-05-17T00:46:37.731Z,101010.89
2019-05-17T00:49:07.295Z,101007.84
2019-05-17T00:51:37.047Z,101008.12
2019-05-17T00:54:07.903Z,100998.06
2019-05-17T00:56:37.619Z,100992.80
2019-05-17T00:59:07.446Z,100992.73
2019-05-17T01:01:37.126Z,100993.05
2019-05-17T01:04:06.977Z,100981.94
2019-05-17T01:06:37.584Z,100982.37
2019-05-17T01:09:08.304Z,100974.46
2019-05-17T01:11:38.122Z,100979.13
2019-05-17T01:14:07.749Z,100972.16
2019-05-17T01:16:37.450Z,100972.77
2019-05-17T01:19:07.163Z,100970.84
2019-05-17T01:21:36.917Z,100965.00
2019-05-17T01:24:06.951Z,100969.77
2019-05-17T01:26:37.372Z,100967.22
2019-05-17T01:29:07.101Z,100964.82
2019-05-17T01:31:37.382Z,100968.70
2019-05-17T01:34:07.518Z,100966.42
2019-05-17T01:36:37.270Z,100966.09
2019-05-17T01:39:17.654Z,100958.38
2019-05-17T01:41:38.261Z,100961.03
2019-05-17T01:44:07.914Z,100969.80
2019-05-17T01:46:40.048Z,100961.44
2019-05-17T01:49:09.631Z,100956.81
2019-05-17T01:51:39.146Z,100961.32
2019-05-17T01:54:08.705Z,100962.34
2019-05-17T01:56:38.286Z,100962.06
2019-05-17T01:59:07.887Z,100965.11
2019-05-17T02:01:42.466Z,100962.34
2019-05-17T02:04:11.991Z,100961.70
2019-05-17T02:06:41.517Z,100958.88
2019-05-17T02:09:11.207Z,100955.49
2019-05-17T02:11:40.763Z,100947.84
2019-05-17T02:14:10.309Z,100958.32
2019-05-17T02:16:39.959Z,100956.75
2019-05-17T02:19:09.545Z,100946.69
2019-05-17T02:21:39.279Z,100947.69
2019-05-17T02:24:10.819Z,100946.95
2019-05-17T02:26:40.478Z,100941.52
2019-05-17T02:29:11.956Z,100932.93
2019-05-17T02:31:43.523Z,100943.02
2019-05-17T02:34:14.122Z,100941.08
2019-05-17T02:36:43.953Z,100942.63
2019-05-17T02:39:14.011Z,100942.36
2019-05-17T02:41:43.773Z,100937.12
2019-05-17T02:44:13.388Z,100943.52
2019-05-17T02:46:43.576Z,100941.41
2019-05-17T02:49:13.856Z,100937.30
2019-05-17T02:51:43.521Z,100938.23
2019-05-17T02:54:13.499Z,100939.63
2019-05-17T02:56:43.769Z,100936.89
2019-05-17T02:59:13.861Z,100931.84
2019-05-17T03:01:44.434Z,100933.86
2019-05-17T03:04:14.307Z,100930.05
2019-05-17T03:06:44.229Z,100939.55
2019-05-17T03:09:15.659Z,100941.94
2019-05-17T03:11:45.227Z,100945.05
2019-05-17T03:14:14.769Z,100946.44
2019-05-17T03:16:44.570Z,100944.90
2019-05-17T03:19:14.238Z,100939.75
2019-05-17T03:21:43.941Z,100937.19
2019-05-17T03:24:13.953Z,100940.22
2019-05-17T03:26:43.658Z,100950.14
2019-05-17T03:29:13.853Z,100945.39
2019-05-17T03:31:50.819Z,100942.78
2019-05-17T03:34:17.197Z,100940.62
2019-05-17T03:36:47.442Z,100940.71
2019-05-17T03:39:17.583Z,100936.13
2019-05-17T03:41:47.168Z,100932.83
2019-05-17T03:44:16.754Z,100926.93
2019-05-17T03:46:46.341Z,100930.62
2019-05-17T03:49:22.064Z,100934.33
2019-05-17T03:51:52.929Z,100931.31
2019-05-17T03:54:22.808Z,100927.27
2019-05-17T03:56:53.207Z,100936.73
2019-05-17T03:59:24.217Z,100939.10
2019-05-17T04:01:54.057Z,100935.55
2019-05-17T04:04:23.622Z,100937.50
2019-05-17T04:06:53.197Z,100940.04
2019-05-17T04:09:23.002Z,100949.53
2019-05-17T04:11:53.577Z,100947.12
2019-05-17T04:14:23.798Z,100944.03
2019-05-17T04:16:53.881Z,100945.05
2019-05-17T04:19:24.102Z,100940.99
2019-05-17T04:21:53.878Z,100939.87
2019-05-17T04:24:26.155Z,100942.25
2019-05-17T04:26:55.707Z,100940.70
2019-05-17T04:29:25.253Z,100940.84
2019-05-17T04:31:54.937Z,100946.71
2019-05-17T04:34:24.421Z,100946.89
2019-05-17T04:36:54.085Z,100948.03
2019-05-17T04:39:23.649Z,100953.61
2019-05-17T04:41:54.740Z,100949.68
2019-05-17T04:44:24.657Z,100948.58
2019-05-17T04:46:57.348Z,100950.70
2019-05-17T04:49:26.871Z,100960.49
2019-05-17T04:51:56.445Z,100958.11
2019-05-17T04:54:26.272Z,100956.61
2019-05-17T04:56:55.899Z,100954.69
2019-05-17T04:59:25.479Z,100953.66
2019-05-17T05:01:55.114Z,100954.28
2019-05-17T05:04:26.591Z,100949.61
2019-05-17T05:06:56.205Z,100939.51
2019-05-17T05:09:26.106Z,100947.31
2019-05-17T05:12:01.446Z,100950.30
2019-05-17T05:14:26.914Z,100941.84
2019-05-17T05:16:56.605Z,100942.48
2019-05-17T05:19:26.143Z,100936.34
2019-05-17T05:21:55.810Z,100937.52
2019-05-17T05:24:25.456Z,100942.24
2019-05-17T05:26:55.419Z,100940.39
2019-05-17T05:29:25.154Z,100936.58
2019-05-17T05:31:54.914Z,100942.80
2019-05-17T05:34:24.438Z,100940.64
2019-05-17T05:36:54.144Z,100936.70
2019-05-17T05:39:23.664Z,100937.52
2019-05-17T05:42:06.541Z,100944.31
2019-05-17T05:44:24.611Z,100944.84
2019-05-17T05:46:54.329Z,100941.56
2019-05-17T05:49:23.896Z,100933.53
2019-05-17T05:51:53.569Z,100929.59
2019-05-17T05:54:26.059Z,100935.09
2019-05-17T05:56:55.688Z,100936.80
2019-05-17T05:59:25.348Z,100938.19
2019-05-17T06:01:54.969Z,100936.55
2019-05-17T06:04:24.686Z,100930.40
2019-05-17T06:06:54.440Z,100933.73
2019-05-17T06:09:24.242Z,100919.39
2019-05-17T06:11:53.941Z,100925.97
2019-05-17T06:14:23.926Z,100927.60
2019-05-17T06:16:54.547Z,100915.23
2019-05-17T06:19:24.224Z,100916.44
2019-05-17T06:21:56.219Z,100920.05
2019-05-17T06:24:25.074Z,100914.71
2019-05-17T06:26:54.747Z,100910.77
2019-05-17T06:29:24.455Z,100915.00
2019-05-17T06:31:53.994Z,100917.16
2019-05-17T06:34:24.668Z,100917.39
2019-05-17T06:36:54.324Z,100909.96
2019-05-17T06:39:24.048Z,100916.62
2019-05-17T06:41:54.040Z,100911.98
2019-05-17T06:44:23.644Z,100910.45
2019-05-17T06:46:53.280Z,100911.33
2019-05-17T06:49:22.941Z,100914.80
2019-05-17T06:51:52.637Z,100921.24
2019-05-17T06:54:22.256Z,100919.55
2019-05-17T06:56:52.639Z,100925.93
2019-05-17T06:59:22.441Z,100910.80
2019-05-17T07:01:52.429Z,100910.80
2019-05-17T07:04:21.946Z,100915.70
2019-05-17T07:07:10.803Z,100913.98
2019-05-17T07:09:40.745Z,100919.37
2019-05-17T07:12:10.571Z,100922.45
2019-05-17T07:14:40.340Z,100918.87
2019-05-17T07:17:10.093Z,100916.95
2019-05-17T07:19:40.187Z,100917.19
2019-05-17T07:22:10.174Z,100917.67
2019-05-17T07:24:39.839Z,100913.02
2019-05-17T07:27:09.959Z,100914.08
2019-05-17T07:29:40.341Z,100917.95
2019-05-17T07:32:10.115Z,100913.06
2019-05-17T07:34:40.291Z,100920.88
2019-05-17T07:37:10.661Z,100918.22
2019-05-17T07:39:42.292Z,100915.97
2019-05-17T07:42:11.628Z,100910.52
2019-05-17T07:44:44.041Z,100909.19
2019-05-17T07:47:13.781Z,100914.39
2019-05-17T07:49:43.296Z,100910.42
2019-05-17T07:52:12.940Z,100908.84
2019-05-17T07:54:42.535Z,100910.69
2019-05-17T07:57:12.302Z,100902.42
2019-05-17T07:59:43.916Z,100905.16
2019-05-17T08:02:13.544Z,100901.84
2019-05-17T08:04:43.321Z,100906.97
2019-05-17T08:07:13.019Z,100923.23
2019-05-17T08:09:42.521Z,100908.73
2019-05-17T08:12:12.080Z,100914.83
2019-05-17T08:14:41.738Z,100912.91
2019-05-17T08:17:12.972Z,100909.83
2019-05-17T08:19:42.474Z,100904.74
2019-05-17T08:22:12.100Z,100898.13
2019-05-17T08:24:41.637Z,100908.04
2019-05-17T08:27:11.228Z,100901.02
2019-05-17T08:29:41.013Z,100906.45
2019-05-17T08:32:10.525Z,100906.76
2019-05-17T08:34:40.218Z,100905.06
2019-05-17T08:37:09.887Z,100902.44
2019-05-17T08:39:40.098Z,100902.53
2019-05-17T08:42:09.946Z,100901.99
2019-05-17T08:44:42.346Z,100895.34
2019-05-17T08:47:11.944Z,100894.80
2019-05-17T08:49:41.530Z,100896.24
2019-05-17T08:52:11.410Z,100907.09
2019-05-17T08:54:42.931Z,100904.23
2019-05-17T08:57:12.237Z,100891.88
2019-05-17T08:59:41.777Z,100888.30
2019-05-17T09:02:19.722Z,100883.34
2019-05-17T09:04:46.127Z,100880.57
2019-05-17T09:07:16.045Z,100884.55
2019-05-17T09:09:45.640Z,100875.29
2019-05-17T09:12:15.186Z,100866.34
2019-05-17T09:14:44.871Z,100865.78
2019-05-17T09:17:14.391Z,100866.84
2019-05-17T09:19:45.532Z,100861.20
2019-05-17T09:22:15.140Z,100856.55
2019-05-17T09:24:47.124Z,100853.50
2019-05-17T09:27:16.634Z,100859.92
2019-05-17T09:29:46.505Z,100852.38
2019-05-17T09:32:16.014Z,100851.41
2019-05-17T09:34:45.754Z,100844.09
2019-05-17T09:37:18.780Z,100847.86
2019-05-17T09:39:46.666Z,100840.77
2019-05-17T09:42:16.463Z,100841.03
2019-05-17T09:44:46.079Z,100836.52
2019-05-17T09:47:15.929Z,100837.83
2019-05-17T09:49:45.527Z,100835.14
2019-05-17T09:52:15.511Z,100836.83
2019-05-17T09:54:45.599Z,100841.23
2019-05-17T09:57:15.210Z,100834.03
2019-05-17T09:59:44.924Z,100839.19
2019-05-17T10:02:14.614Z,100835.92
2019-05-17T10:04:44.213Z,100828.91
2019-05-17T10:07:13.819Z,100811.85
2019-05-17T10:09:43.560Z,100811.95
2019-05-17T10:12:13.104Z,100812.28
2019-05-17T10:14:45.443Z,100804.48
2019-05-17T10:17:15.015Z,100801.03
2019-05-17T10:19:44.542Z,100802.70
2019-05-17T10:22:14.225Z,100792.92
2019-05-17T10:24:43.765Z,100793.92
2019-05-17T10:27:14.697Z,100795.30
2019-05-17T10:29:44.508Z,100796.39
2019-05-17T10:32:14.043Z,100796.93
2019-05-17T10:34:43.574Z,100798.67
2019-05-17T10:37:14.331Z,100799.64
2019-05-17T10:39:43.946Z,100785.87
2019-05-17T10:42:13.660Z,100788.47
2019-05-17T10:44:47.572Z,100783.88
2019-05-17T10:47:14.724Z,100790.39
2019-05-17T10:49:44.836Z,100788.09
2019-05-17T10:52:14.638Z,100783.66
2019-05-17T10:54:44.517Z,100794.58
2019-05-17T10:57:14.315Z,100794.38
2019-05-17T10:59:44.294Z,100800.69
2019-05-17T11:02:13.929Z,100792.55
2019-05-17T11:04:43.594Z,100786.31
2019-05-17T11:07:13.217Z,100797.08
2019-05-17T11:09:42.828Z,100787.84
2019-05-17T11:12:12.513Z,100787.77
2019-05-17T11:14:52.368Z,100790.11
2019-05-17T11:17:13.707Z,100792.41
2019-05-17T11:19:43.379Z,100790.52
2019-05-17T11:22:13.944Z,100784.22
2019-05-17T11:24:43.729Z,100790.38
2019-05-17T11:27:14.001Z,100793.14
2019-05-17T11:29:43.651Z,100781.98
2019-05-17T11:32:13.260Z,100778.80
2019-05-17T11:34:42.948Z,100778.64
2019-05-17T11:37:12.609Z,100773.99
2019-05-17T11:39:42.222Z,100772.22
2019-05-17T11:42:11.907Z,100767.19
2019-05-17T11:44:41.697Z,100772.83
2019-05-17T11:47:11.278Z,100779.59
2019-05-17T11:49:40.839Z,100774.38
2019-05-17T11:52:10.640Z,100776.72
2019-05-17T11:54:40.296Z,100771.28
2019-05-17T11:57:12.345Z,100771.50
2019-05-17T11:59:41.242Z,100769.29
2019-05-17T12:02:10.788Z,100766.27
2019-05-17T12:04:40.578Z,100764.99
2019-05-17T12:07:10.552Z,100761.36
2019-05-17T12:09:40.118Z,100762.63
2019-05-17T12:12:09.713Z,100757.15
2019-05-17T12:14:39.350Z,100764.09
2019-05-17T12:17:09.012Z,100763.00
2019-05-17T12:19:41.516Z,100755.55
2019-05-17T12:22:12.419Z,100752.63
2019-05-17T12:24:42.000Z,100747.98
2019-05-17T12:27:13.399Z,100749.27
2019-05-17T12:29:43.269Z,100752.31
2019-05-17T12:32:16.852Z,100742.66
2019-05-17T12:34:46.411Z,100737.39
2019-05-17T12:37:16.396Z,100736.17
2019-05-17T12:39:48.866Z,100745.20
2019-05-17T12:42:18.453Z,100740.49
2019-05-17T12:44:48.142Z,100737.72
2019-05-17T12:47:19.466Z,100733.97
2019-05-17T12:49:49.154Z,100737.86
2019-05-17T12:52:20.693Z,100731.06
2019-05-17T12:54:50.555Z,100732.03
2019-05-17T12:57:20.259Z,100727.38
2019-05-17T12:59:49.968Z,100730.61
2019-05-17T13:02:19.732Z,100738.59
2019-05-17T13:04:49.358Z,100742.80
2019-05-17T13:07:19.052Z,100736.20
2019-05-17T13:09:48.567Z,100739.70
2019-05-17T13:12:18.151Z,100735.84
2019-05-17T13:14:50.771Z,100726.23
2019-05-17T13:17:20.404Z,100733.45
2019-05-17T13:19:50.168Z,100730.06
2019-05-17T13:22:20.354Z,100718.25
2019-05-17T13:24:49.994Z,100721.20
2019-05-17T13:27:19.697Z,100714.38
2019-05-17T13:29:49.352Z,100717.95
2019-05-17T13:32:19.123Z,100715.53
2019-05-17T13:34:48.641Z,100719.88
2019-05-17T13:37:18.354Z,100720.12
2019-05-17T13:39:48.345Z,100712.77
2019-05-17T13:42:18.131Z,100715.16
2019-05-17T13:44:47.874Z,100717.81
2019-05-17T13:47:17.651Z,100715.89
2019-05-17T13:49:47.276Z,100708.27
2019-05-17T13:52:18.211Z,100717.02
2019-05-17T13:54:47.877Z,100707.41
2019-05-17T13:57:17.608Z,100699.58
2019-05-17T13:59:47.504Z,100703.98
2019-05-17T14:02:17.311Z,100699.38
2019-05-17T14:04:47.117Z,100702.97
2019-05-17T14:07:16.949Z,100700.03
2019-05-17T14:09:46.587Z,100710.33
2019-05-17T14:12:17.868Z,100703.64
2019-05-17T14:14:47.534Z,100707.31
2019-05-17T14:17:17.207Z,100699.21
2019-05-17T14:19:46.878Z,100706.26
2019-05-17T14:22:16.868Z,100705.73
2019-05-17T14:24:46.554Z,100707.15
2019-05-17T14:27:16.172Z,100707.99
2019-05-17T14:29:45.853Z,100699.73
2019-05-17T14:32:15.582Z,100696.84
2019-05-17T14:34:45.323Z,100702.54
2019-05-17T14:37:14.884Z,100698.43
2019-05-17T14:39:44.483Z,100699.89
2019-05-17T14:42:14.218Z,100706.76
2019-05-17T14:44:43.989Z,100702.72
2019-05-17T14:47:13.541Z,100697.92
2019-05-17T14:49:43.058Z,100701.30
2019-05-17T14:52:12.739Z,100693.27
2019-05-17T14:54:42.565Z,100691.64
2019-05-17T14:57:12.147Z,100690.69
2019-05-17T14:59:42.118Z,100690.41
2019-05-17T15:02:11.735Z,100694.14
2019-05-17T15:04:41.295Z,100683.70
2019-05-17T15:07:11.543Z,100689.05
2019-05-17T15:09:41.192Z,100681.33
2019-05-17T15:12:26.877Z,100678.18
2019-05-17T15:14:43.738Z,100683.25
2019-05-17T15:17:13.302Z,100663.59
2019-05-17T15:19:43.406Z,100662.80
2019-05-17T15:22:13.407Z,100662.36
2019-05-17T15:24:42.948Z,100664.05
2019-05-17T15:27:12.540Z,100659.31
2019-05-17T15:29:42.470Z,100649.69
2019-05-17T15:32:13.853Z,100663.66
2019-05-17T15:34:43.676Z,100655.03
2019-05-17T15:37:15.622Z,100655.34
2019-05-17T15:39:45.739Z,100653.20
2019-05-17T15:42:15.490Z,100652.54
2019-05-17T15:44:48.010Z,100649.33
2019-05-17T15:47:17.758Z,100652.78
2019-05-17T15:49:47.420Z,100636.78
2019-05-17T15:52:18.308Z,100651.11
2019-05-17T15:54:48.774Z,100650.23
2019-05-17T15:57:18.747Z,100645.21
2019-05-17T15:59:48.469Z,100645.45
2019-05-17T16:02:18.131Z,100654.59
2019-05-17T16:04:47.806Z,100636.48
2019-05-17T16:07:17.559Z,100629.42
2019-05-17T16:09:47.430Z,100626.67
2019-05-17T16:12:17.094Z,100628.52
2019-05-17T16:14:47.905Z,100623.53
2019-05-17T16:17:17.517Z,100621.13
2019-05-17T16:19:47.056Z,100628.55
2019-05-17T16:22:16.694Z,100621.77
2019-05-17T16:24:46.315Z,100624.72
2019-05-17T16:27:16.151Z,100619.08
2019-05-17T16:29:45.962Z,100621.77
2019-05-17T16:32:15.633Z,100610.52
2019-05-17T16:34:45.423Z,100612.45
2019-05-17T16:37:17.132Z,100612.77
2019-05-17T16:39:46.754Z,100603.22
2019-05-17T16:42:16.423Z,100601.19
2019-05-17T16:44:46.322Z,100599.25
2019-05-17T16:47:16.133Z,100597.59
2019-05-17T16:49:48.744Z,100593.16
2019-05-17T16:52:18.814Z,100591.27
2019-05-17T16:54:48.826Z,100591.80
2019-05-17T16:57:18.858Z,100584.92
2019-05-17T16:59:48.852Z,100595.26
2019-05-17T17:02:22.002Z,100591.69
2019-05-17T17:04:51.970Z,100591.19
2019-05-17T17:07:21.783Z,100600.11
2019-05-17T17:09:51.551Z,100586.13
2019-05-17T17:12:21.570Z,100590.41
2019-05-17T17:14:51.445Z,100590.06
2019-05-17T17:17:21.562Z,100593.44
2019-05-17T17:19:51.450Z,100582.15
2019-05-17T17:22:20.998Z,100587.52
2019-05-17T17:24:50.603Z,100580.02
2019-05-17T17:27:20.170Z,100576.95
2019-05-17T17:29:49.800Z,100585.97
2019-05-17T17:32:21.447Z,100585.63
2019-05-17T17:34:53.652Z,100581.43
2019-05-17T17:37:24.631Z,100584.68
2019-05-17T17:39:54.354Z,100586.20
2019-05-17T17:42:24.150Z,100584.88
2019-05-17T17:44:54.360Z,100578.80
2019-05-17T17:47:24.287Z,100579.56
2019-05-17T17:49:55.960Z,100572.36
2019-05-17T17:52:25.968Z,100576.31
2019-05-17T17:54:56.014Z,100574.84
2019-05-17T17:57:25.749Z,100579.19
2019-05-17T17:59:55.795Z,100576.26
2019-05-17T18:02:26.173Z,100582.55
2019-05-17T18:04:55.895Z,100580.48
2019-05-17T18:07:25.490Z,100583.70
2019-05-17T18:09:55.153Z,100584.16
2019-05-17T18:12:25.022Z,100571.94
2019-05-17T18:14:54.776Z,100575.44
2019-05-17T18:17:24.389Z,100582.77
2019-05-17T18:19:54.257Z,100577.34
2019-05-17T18:22:25.504Z,100583.67
2019-05-17T18:24:55.077Z,100581.98
2019-05-17T18:27:24.775Z,100589.19
2019-05-17T18:29:54.593Z,100584.23
2019-05-17T18:32:24.310Z,100580.77
2019-05-17T18:34:54.112Z,100588.82
2019-05-17T18:37:26.283Z,100588.72
2019-05-17T18:39:55.922Z,100587.49
2019-05-17T18:42:25.723Z,100582.09
2019-05-17T18:44:55.459Z,100581.84
2019-05-17T18:47:25.264Z,100587.80
2019-05-17T18:49:55.179Z,100588.56
2019-05-17T18:52:24.794Z,100584.73
2019-05-17T18:54:55.929Z,100588.39
2019-05-17T18:57:25.792Z,100589.18
2019-05-17T18:59:55.428Z,100590.04
2019-05-17T19:02:25.012Z,100592.89
2019-05-17T19:04:54.782Z,100600.30
2019-05-17T19:07:24.492Z,100598.16
2019-05-17T19:09:54.516Z,100600.14
2019-05-17T19:12:27.136Z,100601.98
2019-05-17T19:15:00.448Z,100602.05
2019-05-17T19:17:28.292Z,100605.14
2019-05-17T19:19:57.930Z,100604.39
2019-05-17T19:22:27.677Z,100609.14
2019-05-17T19:24:57.236Z,100610.13
2019-05-17T19:27:27.016Z,100617.22
2019-05-17T19:29:59.876Z,100618.14
2019-05-17T19:32:31.084Z,100615.63
2019-05-17T19:35:03.677Z,100618.88
2019-05-17T19:37:33.436Z,100617.54
2019-05-17T19:40:04.007Z,100616.66
2019-05-17T19:42:33.736Z,100624.89
2019-05-17T19:45:05.247Z,100623.86
2019-05-17T19:47:35.038Z,100622.36
2019-05-17T19:50:06.916Z,100624.36
2019-05-17T19:52:36.521Z,100622.36
2019-05-17T19:55:07.522Z,100621.25
2019-05-17T19:57:37.562Z,100622.49
2019-05-17T20:00:12.487Z,100629.30
2019-05-17T20:02:42.015Z,100619.17
2019-05-17T20:05:14.098Z,100624.16
2019-05-17T20:07:43.886Z,100622.97
2019-05-17T20:10:13.725Z,100626.06
2019-05-17T20:12:43.585Z,100621.23
2019-05-17T20:15:17.841Z,100625.84
2019-05-17T20:17:45.127Z,100623.06
2019-05-17T20:20:15.889Z,100626.25
2019-05-17T20:22:48.463Z,100630.11
2019-05-17T20:25:19.827Z,100621.70
2019-05-17T20:27:49.469Z,100617.95
2019-05-17T20:30:20.123Z,100612.53
2019-05-17T20:32:51.753Z,100612.73
2019-05-17T20:35:21.566Z,100610.91
2019-05-17T20:37:51.064Z,100614.83
2019-05-17T20:40:21.168Z,100612.38
2019-05-17T20:42:50.772Z,100610.27
2019-05-17T20:45:32.579Z,100617.76
2019-05-17T20:47:51.682Z,100608.68
2019-05-17T20:50:21.458Z,100616.05
2019-05-17T20:52:51.191Z,100608.78
2019-05-17T20:55:20.957Z,100610.92
2019-05-17T20:57:50.627Z,100606.19
2019-05-17T21:00:20.390Z,100604.39
2019-05-17T21:02:50.268Z,100606.61
2019-05-17T21:05:20.080Z,100596.00
2019-05-17T21:07:51.005Z,100599.17
2019-05-17T21:10:20.699Z,100598.11
2019-05-17T21:12:50.492Z,100600.09
2019-05-17T21:15:20.233Z,100603.25
2019-05-17T21:17:49.856Z,100591.89
2019-05-17T21:20:20.615Z,100603.15
2019-05-17T21:22:50.264Z,100597.78
2019-05-17T21:25:19.998Z,100593.88
2019-05-17T21:27:49.809Z,100601.86
2019-05-17T21:30:19.438Z,100594.91
2019-05-17T21:32:49.032Z,100593.33
2019-05-17T21:35:18.739Z,100588.81
2019-05-17T21:37:48.414Z,100588.27
2019-05-17T21:40:18.462Z,100594.28
2019-05-17T21:42:49.736Z,100589.02
2019-05-17T21:45:19.547Z,100584.16
2019-05-17T21:47:49.475Z,100589.11
2019-05-17T21:50:23.463Z,100595.10
2019-05-17T21:52:53.086Z,100596.25
2019-05-17T21:55:22.733Z,100595.20
2019-05-17T21:57:52.551Z,100593.37
2019-05-17T22:00:52.514Z,100594.45
2019-05-17T22:03:23.797Z,100594.03
2019-05-17T22:05:53.577Z,100595.91
2019-05-17T22:08:24.809Z,100596.78
2019-05-17T22:10:54.527Z,100598.70
2019-05-17T22:13:24.073Z,100602.24
2019-05-17T22:15:54.290Z,100602.83
2019-05-17T22:18:24.011Z,100602.42
2019-05-17T22:20:55.168Z,100601.58
2019-05-17T22:23:24.991Z,100597.89
2019-05-17T22:25:54.572Z,100596.09
2019-05-17T22:28:24.225Z,100599.75
2019-05-17T22:30:53.917Z,100595.34
2019-05-17T22:33:23.589Z,100600.30
2019-05-17T22:35:54.753Z,100600.95
2019-05-17T22:38:24.376Z,100598.78
2019-05-17T22:40:54.146Z,100593.42
2019-05-17T22:43:23.817Z,100596.57
2019-05-17T22:45:53.536Z,100602.64
2019-05-17T22:48:23.227Z,100598.45
2019-05-17T22:50:52.843Z,100591.48
2019-05-17T22:53:22.515Z,100590.34
2019-05-17T22:55:52.477Z,100581.20
2019-05-17T22:58:22.120Z,100585.84
2019-05-17T23:00:51.846Z,100587.05
2019-05-17T23:03:21.915Z,100580.09
2019-05-17T23:05:51.429Z,100586.00
2019-05-17T23:08:21.062Z,100579.28
2019-05-17T23:10:52.256Z,100579.59
2019-05-17T23:13:21.868Z,100578.69
2019-05-17T23:16:04.803Z,100579.21
2019-05-17T23:18:35.394Z,100575.52
2019-05-17T23:21:05.470Z,100578.04
2019-05-17T23:23:37.097Z,100577.20
2019-05-17T23:26:06.795Z,100572.47
2019-05-17T23:28:36.492Z,100574.98
2019-05-17T23:31:06.412Z,100564.16
2019-05-17T23:33:35.965Z,100565.16
2019-05-17T23:36:05.534Z,100565.25
2019-05-17T23:38:35.246Z,100567.39
2019-05-17T23:41:04.810Z,100563.17
2019-05-17T23:43:34.851Z,100566.44
2019-05-17T23:46:07.683Z,100574.42
2019-05-17T23:48:37.310Z,100572.34
2019-05-17T23:51:07.088Z,100568.47
2019-05-17T23:53:36.655Z,100565.00
2019-05-17T23:56:06.667Z,100564.08
2019-05-17T23:58:36.259Z,100563.76
